sensor_id;sensor_type;location;lat;lon;timestamp;temperature;humidity
13052;DHT22;6592;47.484;9.726;2023-08-30T00:01:10;12.30;99.90
13052;DHT22;6592;47.484;9.726;2023-08-30T00:03:38;12.30;99.90
13052;DHT22;6592;47.484;9.726;2023-08-30T00:06:07;12.30;99.90
13052;DHT22;6592;47.484;9.726;2023-08-30T00:08:38;12.30;99.90
13052;DHT22;6592;47.484;9.726;2023-08-30T00:11:06;12.30;99.90
13052;DHT22;6592;47.484;9.726;2023-08-30T00:13:36;12.30;99.90
13052;DHT22;6592;47.484;9.726;2023-08-30T00:16:04;12.30;99.90
13052;DHT22;6592;47.484;9.726;2023-08-30T00:18:33;12.30;99.90
13052;DHT22;6592;47.484;9.726;2023-08-30T00:21:02;12.30;99.90
13052;DHT22;6592;47.484;9.726;2023-08-30T00:23:30;12.40;99.90
13052;DHT22;6592;47.484;9.726;2023-08-30T00:25:58;12.40;99.90
13052;DHT22;6592;47.484;9.726;2023-08-30T00:28:26;12.30;99.90
13052;DHT22;6592;47.484;9.726;2023-08-30T00:30:56;12.30;99.90
13052;DHT22;6592;47.484;9.726;2023-08-30T00:33:24;12.30;99.90
13052;DHT22;6592;47.484;9.726;2023-08-30T00:35:57;12.30;99.90
13052;DHT22;6592;47.484;9.726;2023-08-30T00:38:27;12.40;99.90
13052;DHT22;6592;47.484;9.726;2023-08-30T00:40:56;12.40;99.90
13052;DHT22;6592;47.484;9.726;2023-08-30T00:43:24;12.40;99.90
13052;DHT22;6592;47.484;9.726;2023-08-30T00:45:52;12.40;99.90
13052;DHT22;6592;47.484;9.726;2023-08-30T00:48:22;12.40;99.90
13052;DHT22;6592;47.484;9.726;2023-08-30T00:50:51;12.40;99.90
13052;DHT22;6592;47.484;9.726;2023-08-30T00:53:19;12.40;99.90
13052;DHT22;6592;47.484;9.726;2023-08-30T00:55:47;12.40;99.90
13052;DHT22;6592;47.484;9.726;2023-08-30T00:58:16;12.40;99.90
13052;DHT22;6592;47.484;9.726;2023-08-30T01:00:44;12.40;99.90
13052;DHT22;6592;47.484;9.726;2023-08-30T01:03:14;12.40;99.90
13052;DHT22;6592;47.484;9.726;2023-08-30T01:05:45;12.40;99.90
13052;DHT22;6592;47.484;9.726;2023-08-30T01:08:14;12.40;99.90
13052;DHT22;6592;47.484;9.726;2023-08-30T01:10:50;12.40;99.90
13052;DHT22;6592;47.484;9.726;2023-08-30T01:13:21;12.40;99.90
13052;DHT22;6592;47.484;9.726;2023-08-30T01:15:51;12.40;99.90
13052;DHT22;6592;47.484;9.726;2023-08-30T01:18:25;12.40;99.90
13052;DHT22;6592;47.484;9.726;2023-08-30T01:20:56;12.40;99.90
13052;DHT22;6592;47.484;9.726;2023-08-30T01:23:39;12.40;99.90
13052;DHT22;6592;47.484;9.726;2023-08-30T01:26:11;12.40;99.90
13052;DHT22;6592;47.484;9.726;2023-08-30T01:28:43;12.40;99.90
13052;DHT22;6592;47.484;9.726;2023-08-30T01:31:12;12.40;99.90
13052;DHT22;6592;47.484;9.726;2023-08-30T01:33:41;12.50;99.90
13052;DHT22;6592;47.484;9.726;2023-08-30T01:36:10;12.50;99.90
13052;DHT22;6592;47.484;9.726;2023-08-30T01:38:39;12.40;99.90
13052;DHT22;6592;47.484;9.726;2023-08-30T01:41:08;12.40;99.90
13052;DHT22;6592;47.484;9.726;2023-08-30T01:43:36;12.40;99.90
13052;DHT22;6592;47.484;9.726;2023-08-30T01:46:06;12.40;99.90
13052;DHT22;6592;47.484;9.726;2023-08-30T01:48:35;12.40;99.90
13052;DHT22;6592;47.484;9.726;2023-08-30T01:51:04;12.40;99.90
13052;DHT22;6592;47.484;9.726;2023-08-30T01:53:33;12.40;99.90
13052;DHT22;6592;47.484;9.726;2023-08-30T01:56:02;12.40;99.90
13052;DHT22;6592;47.484;9.726;2023-08-30T01:58:30;12.30;99.90
13052;DHT22;6592;47.484;9.726;2023-08-30T02:01:00;12.30;99.90
13052;DHT22;6592;47.484;9.726;2023-08-30T02:03:30;12.40;99.90
13052;DHT22;6592;47.484;9.726;2023-08-30T02:06:04;12.40;99.90
13052;DHT22;6592;47.484;9.726;2023-08-30T02:08:38;12.40;99.90
13052;DHT22;6592;47.484;9.726;2023-08-30T02:11:14;12.40;99.90
13052;DHT22;6592;47.484;9.726;2023-08-30T02:13:46;12.40;99.90
13052;DHT22;6592;47.484;9.726;2023-08-30T02:16:15;12.40;99.90
13052;DHT22;6592;47.484;9.726;2023-08-30T02:18:47;12.40;99.90
13052;DHT22;6592;47.484;9.726;2023-08-30T02:21:16;12.40;99.90
13052;DHT22;6592;47.484;9.726;2023-08-30T02:23:49;12.40;99.90
13052;DHT22;6592;47.484;9.726;2023-08-30T02:26:19;12.30;99.90
13052;DHT22;6592;47.484;9.726;2023-08-30T02:28:47;12.30;99.90
13052;DHT22;6592;47.484;9.726;2023-08-30T02:31:15;12.30;99.90
13052;DHT22;6592;47.484;9.726;2023-08-30T02:33:44;12.20;99.90
13052;DHT22;6592;47.484;9.726;2023-08-30T02:36:14;12.20;99.90
13052;DHT22;6592;47.484;9.726;2023-08-30T02:38:42;12.20;99.90
13052;DHT22;6592;47.484;9.726;2023-08-30T02:41:10;12.20;99.90
13052;DHT22;6592;47.484;9.726;2023-08-30T02:43:39;12.20;99.90
13052;DHT22;6592;47.484;9.726;2023-08-30T02:46:07;12.20;99.90
13052;DHT22;6592;47.484;9.726;2023-08-30T02:48:35;12.20;99.90
13052;DHT22;6592;47.484;9.726;2023-08-30T02:51:04;12.20;99.90
13052;DHT22;6592;47.484;9.726;2023-08-30T02:53:33;12.20;99.90
13052;DHT22;6592;47.484;9.726;2023-08-30T02:56:02;12.20;99.90
13052;DHT22;6592;47.484;9.726;2023-08-30T02:58:30;12.20;99.90
13052;DHT22;6592;47.484;9.726;2023-08-30T03:01:00;12.10;99.90
13052;DHT22;6592;47.484;9.726;2023-08-30T03:03:29;12.10;99.90
13052;DHT22;6592;47.484;9.726;2023-08-30T03:05:58;12.00;99.90
13052;DHT22;6592;47.484;9.726;2023-08-30T03:08:26;12.10;99.90
13052;DHT22;6592;47.484;9.726;2023-08-30T03:10:56;12.10;99.90
13052;DHT22;6592;47.484;9.726;2023-08-30T03:13:24;12.20;99.90
13052;DHT22;6592;47.484;9.726;2023-08-30T03:15:52;12.20;99.90
13052;DHT22;6592;47.484;9.726;2023-08-30T03:18:20;12.20;99.90
13052;DHT22;6592;47.484;9.726;2023-08-30T03:20:49;12.20;99.90
13052;DHT22;6592;47.484;9.726;2023-08-30T03:23:27;12.20;99.90
13052;DHT22;6592;47.484;9.726;2023-08-30T03:25:56;12.10;99.90
13052;DHT22;6592;47.484;9.726;2023-08-30T03:28:25;12.10;99.90
13052;DHT22;6592;47.484;9.726;2023-08-30T03:30:54;12.20;99.90
13052;DHT22;6592;47.484;9.726;2023-08-30T03:33:22;12.20;99.90
13052;DHT22;6592;47.484;9.726;2023-08-30T03:35:50;12.20;99.90
13052;DHT22;6592;47.484;9.726;2023-08-30T03:38:19;12.20;99.90
13052;DHT22;6592;47.484;9.726;2023-08-30T03:40:52;12.20;99.90
13052;DHT22;6592;47.484;9.726;2023-08-30T03:43:22;12.20;99.90
13052;DHT22;6592;47.484;9.726;2023-08-30T03:45:50;12.10;99.90
13052;DHT22;6592;47.484;9.726;2023-08-30T03:48:19;12.10;99.90
13052;DHT22;6592;47.484;9.726;2023-08-30T03:50:47;12.10;99.90
13052;DHT22;6592;47.484;9.726;2023-08-30T03:53:15;12.10;99.90
13052;DHT22;6592;47.484;9.726;2023-08-30T03:55:44;12.10;99.90
13052;DHT22;6592;47.484;9.726;2023-08-30T03:58:12;12.10;99.90
13052;DHT22;6592;47.484;9.726;2023-08-30T04:00:42;12.10;99.90
13052;DHT22;6592;47.484;9.726;2023-08-30T04:03:10;12.10;99.90
13052;DHT22;6592;47.484;9.726;2023-08-30T04:05:38;12.10;99.90
13052;DHT22;6592;47.484;9.726;2023-08-30T04:08:07;12.10;99.90
13052;DHT22;6592;47.484;9.726;2023-08-30T04:10:36;12.10;99.90
13052;DHT22;6592;47.484;9.726;2023-08-30T04:13:05;12.10;99.90
13052;DHT22;6592;47.484;9.726;2023-08-30T04:15:34;12.10;99.90
13052;DHT22;6592;47.484;9.726;2023-08-30T04:18:05;12.00;99.90
13052;DHT22;6592;47.484;9.726;2023-08-30T04:20:34;12.10;99.90
13052;DHT22;6592;47.484;9.726;2023-08-30T04:23:03;12.20;99.90
13052;DHT22;6592;47.484;9.726;2023-08-30T04:25:34;12.20;99.90
13052;DHT22;6592;47.484;9.726;2023-08-30T04:28:02;12.20;99.90
13052;DHT22;6592;47.484;9.726;2023-08-30T04:30:31;12.20;99.90
13052;DHT22;6592;47.484;9.726;2023-08-30T04:33:00;12.20;99.90
13052;DHT22;6592;47.484;9.726;2023-08-30T04:35:31;12.20;99.90
13052;DHT22;6592;47.484;9.726;2023-08-30T04:38:00;12.20;99.90
13052;DHT22;6592;47.484;9.726;2023-08-30T04:40:30;12.20;99.90
13052;DHT22;6592;47.484;9.726;2023-08-30T04:42:59;12.40;99.90
13052;DHT22;6592;47.484;9.726;2023-08-30T04:45:27;12.20;99.90
13052;DHT22;6592;47.484;9.726;2023-08-30T04:47:56;12.20;99.90
13052;DHT22;6592;47.484;9.726;2023-08-30T04:50:25;12.10;99.90
13052;DHT22;6592;47.484;9.726;2023-08-30T04:52:54;12.10;99.90
13052;DHT22;6592;47.484;9.726;2023-08-30T04:55:24;12.10;99.90
13052;DHT22;6592;47.484;9.726;2023-08-30T04:57:52;12.20;99.90
13052;DHT22;6592;47.484;9.726;2023-08-30T05:00:21;12.20;99.90
13052;DHT22;6592;47.484;9.726;2023-08-30T05:02:49;12.20;99.90
13052;DHT22;6592;47.484;9.726;2023-08-30T05:05:17;12.20;99.90
13052;DHT22;6592;47.484;9.726;2023-08-30T05:07:46;12.20;99.90
13052;DHT22;6592;47.484;9.726;2023-08-30T05:10:15;12.20;99.90
13052;DHT22;6592;47.484;9.726;2023-08-30T05:12:44;12.40;99.90
13052;DHT22;6592;47.484;9.726;2023-08-30T05:15:16;12.20;99.90
13052;DHT22;6592;47.484;9.726;2023-08-30T05:17:44;12.20;99.90
13052;DHT22;6592;47.484;9.726;2023-08-30T05:20:13;12.30;99.90
13052;DHT22;6592;47.484;9.726;2023-08-30T05:22:41;12.30;99.90
13052;DHT22;6592;47.484;9.726;2023-08-30T05:25:09;12.30;99.90
13052;DHT22;6592;47.484;9.726;2023-08-30T05:27:39;12.30;99.90
13052;DHT22;6592;47.484;9.726;2023-08-30T05:30:08;12.40;99.90
13052;DHT22;6592;47.484;9.726;2023-08-30T05:32:36;12.40;99.90
13052;DHT22;6592;47.484;9.726;2023-08-30T05:35:05;12.40;99.90
13052;DHT22;6592;47.484;9.726;2023-08-30T05:37:33;12.40;99.90
13052;DHT22;6592;47.484;9.726;2023-08-30T05:40:02;12.40;99.90
13052;DHT22;6592;47.484;9.726;2023-08-30T05:42:31;12.40;99.90
13052;DHT22;6592;47.484;9.726;2023-08-30T05:45:00;12.40;99.90
13052;DHT22;6592;47.484;9.726;2023-08-30T05:47:30;12.40;99.90
13052;DHT22;6592;47.484;9.726;2023-08-30T05:49:59;12.40;99.90
13052;DHT22;6592;47.484;9.726;2023-08-30T05:52:27;12.40;99.90
13052;DHT22;6592;47.484;9.726;2023-08-30T05:54:55;12.40;99.90
13052;DHT22;6592;47.484;9.726;2023-08-30T05:57:23;12.50;99.90
13052;DHT22;6592;47.484;9.726;2023-08-30T05:59:52;12.50;99.90
13052;DHT22;6592;47.484;9.726;2023-08-30T06:02:22;12.50;99.90
13052;DHT22;6592;47.484;9.726;2023-08-30T06:04:50;12.60;99.90
13052;DHT22;6592;47.484;9.726;2023-08-30T06:07:18;12.70;99.90
13052;DHT22;6592;47.484;9.726;2023-08-30T06:09:47;12.70;99.90
13052;DHT22;6592;47.484;9.726;2023-08-30T06:12:16;12.80;99.90
13052;DHT22;6592;47.484;9.726;2023-08-30T06:14:44;12.80;99.90
13052;DHT22;6592;47.484;9.726;2023-08-30T06:17:19;12.90;99.90
13052;DHT22;6592;47.484;9.726;2023-08-30T06:19:49;13.00;99.90
13052;DHT22;6592;47.484;9.726;2023-08-30T06:22:17;13.10;99.90
13052;DHT22;6592;47.484;9.726;2023-08-30T06:24:45;13.10;99.90
13052;DHT22;6592;47.484;9.726;2023-08-30T06:27:14;13.20;99.90
13052;DHT22;6592;47.484;9.726;2023-08-30T06:29:42;13.40;99.90
13052;DHT22;6592;47.484;9.726;2023-08-30T06:32:10;13.50;99.90
13052;DHT22;6592;47.484;9.726;2023-08-30T06:34:39;13.70;99.90
13052;DHT22;6592;47.484;9.726;2023-08-30T06:37:08;13.90;99.90
13052;DHT22;6592;47.484;9.726;2023-08-30T06:39:36;14.10;99.90
13052;DHT22;6592;47.484;9.726;2023-08-30T06:42:05;14.40;99.90
13052;DHT22;6592;47.484;9.726;2023-08-30T06:44:34;14.60;99.90
13052;DHT22;6592;47.484;9.726;2023-08-30T06:47:02;14.70;99.90
13052;DHT22;6592;47.484;9.726;2023-08-30T06:49:31;14.90;99.90
13052;DHT22;6592;47.484;9.726;2023-08-30T06:51:59;15.00;99.90
13052;DHT22;6592;47.484;9.726;2023-08-30T06:54:34;15.30;99.90
13052;DHT22;6592;47.484;9.726;2023-08-30T06:57:02;15.50;99.90
13052;DHT22;6592;47.484;9.726;2023-08-30T06:59:32;15.60;99.90
13052;DHT22;6592;47.484;9.726;2023-08-30T07:02:01;15.70;99.90
13052;DHT22;6592;47.484;9.726;2023-08-30T07:04:29;15.80;99.90
13052;DHT22;6592;47.484;9.726;2023-08-30T07:06:57;15.80;99.90
13052;DHT22;6592;47.484;9.726;2023-08-30T07:09:26;15.80;99.90
13052;DHT22;6592;47.484;9.726;2023-08-30T07:11:58;15.90;99.90
13052;DHT22;6592;47.484;9.726;2023-08-30T07:14:26;16.00;99.90
13052;DHT22;6592;47.484;9.726;2023-08-30T07:16:54;16.20;99.90
13052;DHT22;6592;47.484;9.726;2023-08-30T07:19:23;16.50;99.90
13052;DHT22;6592;47.484;9.726;2023-08-30T07:21:51;16.80;99.90
13052;DHT22;6592;47.484;9.726;2023-08-30T07:24:19;16.90;99.90
13052;DHT22;6592;47.484;9.726;2023-08-30T07:26:49;17.20;99.90
13052;DHT22;6592;47.484;9.726;2023-08-30T07:29:19;17.30;99.90
13052;DHT22;6592;47.484;9.726;2023-08-30T07:31:47;17.60;99.90
13052;DHT22;6592;47.484;9.726;2023-08-30T07:34:18;18.60;99.90
13052;DHT22;6592;47.484;9.726;2023-08-30T07:36:46;19.10;99.90
13052;DHT22;6592;47.484;9.726;2023-08-30T07:39:15;19.40;99.90
13052;DHT22;6592;47.484;9.726;2023-08-30T07:41:43;20.40;99.90
13052;DHT22;6592;47.484;9.726;2023-08-30T07:44:11;21.70;99.90
13052;DHT22;6592;47.484;9.726;2023-08-30T07:46:41;23.20;99.90
13052;DHT22;6592;47.484;9.726;2023-08-30T07:49:09;24.10;99.90
13052;DHT22;6592;47.484;9.726;2023-08-30T07:51:37;24.40;99.90
13052;DHT22;6592;47.484;9.726;2023-08-30T07:54:06;24.30;99.90
13052;DHT22;6592;47.484;9.726;2023-08-30T07:56:34;23.80;99.90
13052;DHT22;6592;47.484;9.726;2023-08-30T07:59:03;24.60;99.90
13052;DHT22;6592;47.484;9.726;2023-08-30T08:01:31;25.80;99.90
13052;DHT22;6592;47.484;9.726;2023-08-30T08:04:00;25.30;99.90
13052;DHT22;6592;47.484;9.726;2023-08-30T08:06:34;25.10;99.90
13052;DHT22;6592;47.484;9.726;2023-08-30T08:09:04;24.90;99.90
13052;DHT22;6592;47.484;9.726;2023-08-30T08:11:32;25.30;99.90
13052;DHT22;6592;47.484;9.726;2023-08-30T08:14:01;25.20;99.90
13052;DHT22;6592;47.484;9.726;2023-08-30T08:16:31;24.90;99.90
13052;DHT22;6592;47.484;9.726;2023-08-30T08:19:00;24.70;99.90
13052;DHT22;6592;47.484;9.726;2023-08-30T08:21:29;24.40;99.90
13052;DHT22;6592;47.484;9.726;2023-08-30T08:23:57;23.80;99.90
13052;DHT22;6592;47.484;9.726;2023-08-30T08:26:26;23.90;99.90
13052;DHT22;6592;47.484;9.726;2023-08-30T08:28:54;23.30;99.90
13052;DHT22;6592;47.484;9.726;2023-08-30T08:31:23;22.90;99.90
13052;DHT22;6592;47.484;9.726;2023-08-30T08:34:06;23.50;99.90
13052;DHT22;6592;47.484;9.726;2023-08-30T08:36:36;24.50;99.90
13052;DHT22;6592;47.484;9.726;2023-08-30T08:39:05;25.10;99.90
13052;DHT22;6592;47.484;9.726;2023-08-30T08:41:39;25.30;99.90
13052;DHT22;6592;47.484;9.726;2023-08-30T08:44:08;25.50;99.90
13052;DHT22;6592;47.484;9.726;2023-08-30T08:46:37;26.80;99.90
13052;DHT22;6592;47.484;9.726;2023-08-30T08:49:08;27.30;99.90
13052;DHT22;6592;47.484;9.726;2023-08-30T08:51:39;27.00;99.90
13052;DHT22;6592;47.484;9.726;2023-08-30T08:54:08;27.20;99.90
13052;DHT22;6592;47.484;9.726;2023-08-30T08:56:37;27.50;99.90
13052;DHT22;6592;47.484;9.726;2023-08-30T08:59:06;28.00;99.90
13052;DHT22;6592;47.484;9.726;2023-08-30T09:01:36;27.00;99.90
13052;DHT22;6592;47.484;9.726;2023-08-30T09:04:08;27.40;99.90
13052;DHT22;6592;47.484;9.726;2023-08-30T09:06:38;28.30;99.90
13052;DHT22;6592;47.484;9.726;2023-08-30T09:09:08;29.40;99.90
13052;DHT22;6592;47.484;9.726;2023-08-30T09:11:37;29.90;99.90
13052;DHT22;6592;47.484;9.726;2023-08-30T09:14:17;30.70;99.90
13052;DHT22;6592;47.484;9.726;2023-08-30T09:16:54;30.70;99.90
13052;DHT22;6592;47.484;9.726;2023-08-30T09:19:23;31.10;99.50
13052;DHT22;6592;47.484;9.726;2023-08-30T09:21:53;31.50;99.90
13052;DHT22;6592;47.484;9.726;2023-08-30T09:24:22;32.50;96.60
13052;DHT22;6592;47.484;9.726;2023-08-30T09:26:52;33.20;94.00
13052;DHT22;6592;47.484;9.726;2023-08-30T09:29:21;33.60;90.50
13052;DHT22;6592;47.484;9.726;2023-08-30T09:31:51;33.60;90.40
13052;DHT22;6592;47.484;9.726;2023-08-30T09:34:22;34.00;89.10
13052;DHT22;6592;47.484;9.726;2023-08-30T09:36:53;34.50;86.40
13052;DHT22;6592;47.484;9.726;2023-08-30T09:39:22;34.70;83.00
13052;DHT22;6592;47.484;9.726;2023-08-30T09:41:51;34.80;82.20
13052;DHT22;6592;47.484;9.726;2023-08-30T09:44:20;35.40;82.20
13052;DHT22;6592;47.484;9.726;2023-08-30T09:46:50;35.80;80.50
13052;DHT22;6592;47.484;9.726;2023-08-30T09:49:20;36.10;77.60
13052;DHT22;6592;47.484;9.726;2023-08-30T09:51:50;36.80;76.20
13052;DHT22;6592;47.484;9.726;2023-08-30T09:54:22;37.40;74.70
13052;DHT22;6592;47.484;9.726;2023-08-30T09:56:54;37.00;66.20
13052;DHT22;6592;47.484;9.726;2023-08-30T09:59:45;36.80;68.40
13052;DHT22;6592;47.484;9.726;2023-08-30T10:02:14;36.80;69.00
13052;DHT22;6592;47.484;9.726;2023-08-30T10:04:44;36.90;70.40
13052;DHT22;6592;47.484;9.726;2023-08-30T10:07:14;37.30;69.20
13052;DHT22;6592;47.484;9.726;2023-08-30T10:09:44;36.90;66.10
13052;DHT22;6592;47.484;9.726;2023-08-30T10:12:34;36.50;73.30
13052;DHT22;6592;47.484;9.726;2023-08-30T10:15:03;36.70;71.60
13052;DHT22;6592;47.484;9.726;2023-08-30T10:17:33;36.80;68.10
13052;DHT22;6592;47.484;9.726;2023-08-30T10:20:04;36.30;68.00
13052;DHT22;6592;47.484;9.726;2023-08-30T10:22:36;36.60;69.00
13052;DHT22;6592;47.484;9.726;2023-08-30T10:25:09;36.30;68.50
13052;DHT22;6592;47.484;9.726;2023-08-30T10:27:41;36.80;68.80
13052;DHT22;6592;47.484;9.726;2023-08-30T10:30:10;36.70;68.00
13052;DHT22;6592;47.484;9.726;2023-08-30T10:32:39;36.60;68.00
13052;DHT22;6592;47.484;9.726;2023-08-30T10:35:11;36.40;67.10
13052;DHT22;6592;47.484;9.726;2023-08-30T10:37:40;36.90;65.20
13052;DHT22;6592;47.484;9.726;2023-08-30T10:40:10;36.90;64.90
13052;DHT22;6592;47.484;9.726;2023-08-30T10:42:38;37.00;65.10
13052;DHT22;6592;47.484;9.726;2023-08-30T10:45:08;37.10;64.90
13052;DHT22;6592;47.484;9.726;2023-08-30T10:47:40;37.20;62.90
13052;DHT22;6592;47.484;9.726;2023-08-30T10:50:10;37.00;62.60
13052;DHT22;6592;47.484;9.726;2023-08-30T10:52:39;37.20;64.20
13052;DHT22;6592;47.484;9.726;2023-08-30T10:55:10;37.10;62.90
13052;DHT22;6592;47.484;9.726;2023-08-30T10:57:42;37.40;64.20
13052;DHT22;6592;47.484;9.726;2023-08-30T11:00:19;37.40;60.90
13052;DHT22;6592;47.484;9.726;2023-08-30T11:02:49;37.10;61.60
13052;DHT22;6592;47.484;9.726;2023-08-30T11:05:20;37.40;61.70
13052;DHT22;6592;47.484;9.726;2023-08-30T11:07:50;37.40;63.20
13052;DHT22;6592;47.484;9.726;2023-08-30T11:10:20;37.30;60.40
13052;DHT22;6592;47.484;9.726;2023-08-30T11:12:49;37.20;59.70
13052;DHT22;6592;47.484;9.726;2023-08-30T11:15:18;36.70;61.80
13052;DHT22;6592;47.484;9.726;2023-08-30T11:17:48;36.50;61.40
13052;DHT22;6592;47.484;9.726;2023-08-30T11:20:17;36.00;59.10
13052;DHT22;6592;47.484;9.726;2023-08-30T11:22:48;35.40;60.10
13052;DHT22;6592;47.484;9.726;2023-08-30T11:25:17;34.40;63.00
13052;DHT22;6592;47.484;9.726;2023-08-30T11:27:46;33.70;65.00
13052;DHT22;6592;47.484;9.726;2023-08-30T11:30:15;32.90;66.40
13052;DHT22;6592;47.484;9.726;2023-08-30T11:32:43;32.00;67.10
13052;DHT22;6592;47.484;9.726;2023-08-30T11:35:11;31.40;68.20
13052;DHT22;6592;47.484;9.726;2023-08-30T11:37:40;31.00;70.60
13052;DHT22;6592;47.484;9.726;2023-08-30T11:40:11;30.50;69.80
13052;DHT22;6592;47.484;9.726;2023-08-30T11:42:40;30.10;71.20
13052;DHT22;6592;47.484;9.726;2023-08-30T11:45:10;29.60;71.00
13052;DHT22;6592;47.484;9.726;2023-08-30T11:47:39;29.50;74.40
13052;DHT22;6592;47.484;9.726;2023-08-30T11:50:10;29.20;73.60
13052;DHT22;6592;47.484;9.726;2023-08-30T11:52:39;29.10;75.00
13052;DHT22;6592;47.484;9.726;2023-08-30T11:55:08;29.00;75.40
13052;DHT22;6592;47.484;9.726;2023-08-30T11:57:36;28.70;74.10
13052;DHT22;6592;47.484;9.726;2023-08-30T12:00:11;28.40;77.00
13052;DHT22;6592;47.484;9.726;2023-08-30T12:02:39;28.20;75.90
13052;DHT22;6592;47.484;9.726;2023-08-30T12:05:11;27.90;76.90
13052;DHT22;6592;47.484;9.726;2023-08-30T12:07:39;27.60;77.50
13052;DHT22;6592;47.484;9.726;2023-08-30T12:10:09;27.30;78.30
13052;DHT22;6592;47.484;9.726;2023-08-30T12:12:44;27.10;78.30
13052;DHT22;6592;47.484;9.726;2023-08-30T12:15:14;26.90;75.80
13052;DHT22;6592;47.484;9.726;2023-08-30T12:17:43;27.00;79.00
13052;DHT22;6592;47.484;9.726;2023-08-30T12:20:15;27.30;78.10
13052;DHT22;6592;47.484;9.726;2023-08-30T12:22:44;27.40;80.00
13052;DHT22;6592;47.484;9.726;2023-08-30T12:25:17;27.30;78.40
13052;DHT22;6592;47.484;9.726;2023-08-30T12:27:45;27.50;78.10
13052;DHT22;6592;47.484;9.726;2023-08-30T12:30:15;27.40;78.90
13052;DHT22;6592;47.484;9.726;2023-08-30T12:32:44;27.60;79.10
13052;DHT22;6592;47.484;9.726;2023-08-30T12:35:13;27.70;76.90
13052;DHT22;6592;47.484;9.726;2023-08-30T12:37:42;28.00;77.80
13052;DHT22;6592;47.484;9.726;2023-08-30T12:40:11;28.40;75.50
13052;DHT22;6592;47.484;9.726;2023-08-30T12:42:39;28.80;76.90
13052;DHT22;6592;47.484;9.726;2023-08-30T12:45:08;29.10;76.70
13052;DHT22;6592;47.484;9.726;2023-08-30T12:47:38;29.40;77.00
13052;DHT22;6592;47.484;9.726;2023-08-30T12:50:07;29.80;76.40
13052;DHT22;6592;47.484;9.726;2023-08-30T12:52:36;30.10;74.10
13052;DHT22;6592;47.484;9.726;2023-08-30T12:55:05;30.70;74.30
13052;DHT22;6592;47.484;9.726;2023-08-30T12:57:33;30.80;73.40
13052;DHT22;6592;47.484;9.726;2023-08-30T13:00:02;30.80;72.90
13052;DHT22;6592;47.484;9.726;2023-08-30T13:02:31;30.70;72.20
13052;DHT22;6592;47.484;9.726;2023-08-30T13:05:00;30.60;71.20
13052;DHT22;6592;47.484;9.726;2023-08-30T13:07:29;30.40;71.00
13052;DHT22;6592;47.484;9.726;2023-08-30T13:10:00;30.60;72.30
13052;DHT22;6592;47.484;9.726;2023-08-30T13:12:28;30.20;70.90
13052;DHT22;6592;47.484;9.726;2023-08-30T13:14:56;29.90;68.50
13052;DHT22;6592;47.484;9.726;2023-08-30T13:17:25;29.90;70.60
13052;DHT22;6592;47.484;9.726;2023-08-30T13:19:53;29.90;71.90
13052;DHT22;6592;47.484;9.726;2023-08-30T13:22:24;29.80;73.00
13052;DHT22;6592;47.484;9.726;2023-08-30T13:24:52;29.60;75.00
13052;DHT22;6592;47.484;9.726;2023-08-30T13:27:21;29.80;73.40
13052;DHT22;6592;47.484;9.726;2023-08-30T13:29:50;29.80;73.20
13052;DHT22;6592;47.484;9.726;2023-08-30T13:32:18;29.60;72.30
13052;DHT22;6592;47.484;9.726;2023-08-30T13:34:46;29.90;74.60
13052;DHT22;6592;47.484;9.726;2023-08-30T13:37:15;30.20;74.50
13052;DHT22;6592;47.484;9.726;2023-08-30T13:39:45;30.50;72.90
13052;DHT22;6592;47.484;9.726;2023-08-30T13:42:13;30.60;70.80
13052;DHT22;6592;47.484;9.726;2023-08-30T13:44:42;30.90;71.70
13052;DHT22;6592;47.484;9.726;2023-08-30T13:47:11;30.70;68.40
13052;DHT22;6592;47.484;9.726;2023-08-30T13:49:39;30.20;68.70
13052;DHT22;6592;47.484;9.726;2023-08-30T13:52:07;30.30;66.20
13052;DHT22;6592;47.484;9.726;2023-08-30T13:54:36;30.10;69.60
13052;DHT22;6592;47.484;9.726;2023-08-30T13:57:05;30.20;72.70
13052;DHT22;6592;47.484;9.726;2023-08-30T13:59:33;30.40;71.40
13052;DHT22;6592;47.484;9.726;2023-08-30T14:02:03;30.60;69.90
13052;DHT22;6592;47.484;9.726;2023-08-30T14:04:32;30.60;69.60
13052;DHT22;6592;47.484;9.726;2023-08-30T14:07:02;30.60;69.30
13052;DHT22;6592;47.484;9.726;2023-08-30T14:09:31;30.40;68.90
13052;DHT22;6592;47.484;9.726;2023-08-30T14:11:59;30.20;70.50
13052;DHT22;6592;47.484;9.726;2023-08-30T14:14:29;30.00;70.40
13052;DHT22;6592;47.484;9.726;2023-08-30T14:16:57;30.10;71.80
13052;DHT22;6592;47.484;9.726;2023-08-30T14:19:26;30.30;72.60
13052;DHT22;6592;47.484;9.726;2023-08-30T14:21:55;30.60;71.60
13052;DHT22;6592;47.484;9.726;2023-08-30T14:24:25;30.90;68.60
13052;DHT22;6592;47.484;9.726;2023-08-30T14:26:53;30.80;69.30
13052;DHT22;6592;47.484;9.726;2023-08-30T14:29:21;30.80;65.40
13052;DHT22;6592;47.484;9.726;2023-08-30T14:31:51;30.10;66.40
13052;DHT22;6592;47.484;9.726;2023-08-30T14:34:20;29.90;67.40
13052;DHT22;6592;47.484;9.726;2023-08-30T14:36:48;29.50;69.30
13052;DHT22;6592;47.484;9.726;2023-08-30T14:39:17;29.10;71.30
13052;DHT22;6592;47.484;9.726;2023-08-30T14:41:45;29.10;69.80
13052;DHT22;6592;47.484;9.726;2023-08-30T14:44:13;29.10;68.90
13052;DHT22;6592;47.484;9.726;2023-08-30T14:46:42;28.70;67.80
13052;DHT22;6592;47.484;9.726;2023-08-30T14:49:11;28.40;69.10
13052;DHT22;6592;47.484;9.726;2023-08-30T14:51:40;28.40;70.20
13052;DHT22;6592;47.484;9.726;2023-08-30T14:54:08;28.40;68.50
13052;DHT22;6592;47.484;9.726;2023-08-30T14:56:36;28.50;69.70
13052;DHT22;6592;47.484;9.726;2023-08-30T14:59:05;28.60;69.10
13052;DHT22;6592;47.484;9.726;2023-08-30T15:01:34;28.30;70.70
13052;DHT22;6592;47.484;9.726;2023-08-30T15:04:03;27.90;70.50
13052;DHT22;6592;47.484;9.726;2023-08-30T15:06:33;27.50;70.20
13052;DHT22;6592;47.484;9.726;2023-08-30T15:09:01;27.10;72.20
13052;DHT22;6592;47.484;9.726;2023-08-30T15:11:30;26.10;74.10
13052;DHT22;6592;47.484;9.726;2023-08-30T15:13:58;25.40;77.20
13052;DHT22;6592;47.484;9.726;2023-08-30T15:16:26;24.90;77.80
13052;DHT22;6592;47.484;9.726;2023-08-30T15:18:55;24.60;79.10
13052;DHT22;6592;47.484;9.726;2023-08-30T15:21:23;24.30;81.30
13052;DHT22;6592;47.484;9.726;2023-08-30T15:23:53;24.00;81.80
13052;DHT22;6592;47.484;9.726;2023-08-30T15:26:21;23.70;82.40
13052;DHT22;6592;47.484;9.726;2023-08-30T15:28:49;23.60;83.70
13052;DHT22;6592;47.484;9.726;2023-08-30T15:31:18;23.40;84.20
13052;DHT22;6592;47.484;9.726;2023-08-30T15:33:46;23.40;83.80
13052;DHT22;6592;47.484;9.726;2023-08-30T15:36:14;23.30;85.20
13052;DHT22;6592;47.484;9.726;2023-08-30T15:38:42;23.20;85.00
13052;DHT22;6592;47.484;9.726;2023-08-30T15:41:13;22.80;86.70
13052;DHT22;6592;47.484;9.726;2023-08-30T15:43:42;22.40;87.30
13052;DHT22;6592;47.484;9.726;2023-08-30T15:46:11;22.10;90.20
13052;DHT22;6592;47.484;9.726;2023-08-30T15:48:40;22.10;90.60
13052;DHT22;6592;47.484;9.726;2023-08-30T15:51:10;21.90;90.10
13052;DHT22;6592;47.484;9.726;2023-08-30T15:53:50;21.90;90.00
13052;DHT22;6592;47.484;9.726;2023-08-30T15:56:21;21.80;90.80
13052;DHT22;6592;47.484;9.726;2023-08-30T15:58:49;21.90;90.70